sensor_id;sensor_type;location;lat;lon;timestamp;P1;durP1;ratioP1;P2;durP2;ratioP2
5285;SDS011;2665;53.112;7.358;2023-09-08T00:00:04;9.43;;;3.90;;
5285;SDS011;2665;53.112;7.358;2023-09-08T00:02:31;8.17;;;4.60;;
5285;SDS011;2665;53.112;7.358;2023-09-08T00:04:57;5.03;;;4.30;;
5285;SDS011;2665;53.112;7.358;2023-09-08T00:07:23;5.67;;;3.80;;
5285;SDS011;2665;53.112;7.358;2023-09-08T00:09:49;5.73;;;3.63;;
5285;SDS011;2665;53.112;7.358;2023-09-08T00:12:15;4.77;;;4.20;;
5285;SDS011;2665;53.112;7.358;2023-09-08T00:14:41;4.07;;;3.47;;
5285;SDS011;2665;53.112;7.358;2023-09-08T00:17:07;4.23;;;3.67;;
5285;SDS011;2665;53.112;7.358;2023-09-08T00:19:33;4.77;;;3.70;;
5285;SDS011;2665;53.112;7.358;2023-09-08T00:22:00;6.43;;;4.10;;
5285;SDS011;2665;53.112;7.358;2023-09-08T00:24:26;12.37;;;4.80;;
5285;SDS011;2665;53.112;7.358;2023-09-08T00:26:52;5.80;;;4.20;;
5285;SDS011;2665;53.112;7.358;2023-09-08T00:29:18;6.73;;;4.03;;
5285;SDS011;2665;53.112;7.358;2023-09-08T00:31:45;4.90;;;4.20;;
5285;SDS011;2665;53.112;7.358;2023-09-08T00:34:11;5.37;;;4.10;;
5285;SDS011;2665;53.112;7.358;2023-09-08T00:36:37;5.90;;;4.30;;
5285;SDS011;2665;53.112;7.358;2023-09-08T00:39:03;6.40;;;4.43;;
5285;SDS011;2665;53.112;7.358;2023-09-08T00:41:29;5.60;;;3.80;;
5285;SDS011;2665;53.112;7.358;2023-09-08T00:43:55;7.93;;;4.17;;
5285;SDS011;2665;53.112;7.358;2023-09-08T00:46:21;4.53;;;3.43;;
5285;SDS011;2665;53.112;7.358;2023-09-08T00:48:47;5.60;;;4.53;;
5285;SDS011;2665;53.112;7.358;2023-09-08T00:51:14;4.47;;;3.87;;
5285;SDS011;2665;53.112;7.358;2023-09-08T00:53:40;6.27;;;4.50;;
5285;SDS011;2665;53.112;7.358;2023-09-08T00:56:06;5.53;;;4.47;;
5285;SDS011;2665;53.112;7.358;2023-09-08T00:58:33;5.87;;;4.63;;
5285;SDS011;2665;53.112;7.358;2023-09-08T01:00:59;8.00;;;5.03;;
5285;SDS011;2665;53.112;7.358;2023-09-08T01:03:25;5.70;;;4.33;;
5285;SDS011;2665;53.112;7.358;2023-09-08T01:05:51;5.70;;;4.60;;
5285;SDS011;2665;53.112;7.358;2023-09-08T01:08:18;5.30;;;4.20;;
5285;SDS011;2665;53.112;7.358;2023-09-08T01:10:45;10.40;;;4.10;;
5285;SDS011;2665;53.112;7.358;2023-09-08T01:13:11;5.63;;;4.10;;
5285;SDS011;2665;53.112;7.358;2023-09-08T01:15:37;5.50;;;3.73;;
5285;SDS011;2665;53.112;7.358;2023-09-08T01:18:03;6.97;;;4.50;;
5285;SDS011;2665;53.112;7.358;2023-09-08T01:20:43;5.63;;;4.90;;
5285;SDS011;2665;53.112;7.358;2023-09-08T01:23:16;6.50;;;4.63;;
5285;SDS011;2665;53.112;7.358;2023-09-08T01:26:08;6.07;;;5.10;;
5285;SDS011;2665;53.112;7.358;2023-09-08T01:28:31;6.00;;;4.20;;
5285;SDS011;2665;53.112;7.358;2023-09-08T01:30:57;5.97;;;4.73;;
5285;SDS011;2665;53.112;7.358;2023-09-08T01:33:24;4.90;;;4.17;;
5285;SDS011;2665;53.112;7.358;2023-09-08T01:35:51;5.40;;;4.30;;
5285;SDS011;2665;53.112;7.358;2023-09-08T01:38:17;4.40;;;4.00;;
5285;SDS011;2665;53.112;7.358;2023-09-08T01:40:43;5.00;;;4.43;;
5285;SDS011;2665;53.112;7.358;2023-09-08T01:43:09;6.20;;;4.50;;
5285;SDS011;2665;53.112;7.358;2023-09-08T01:45:35;6.10;;;4.77;;
5285;SDS011;2665;53.112;7.358;2023-09-08T01:48:01;14.60;;;5.37;;
5285;SDS011;2665;53.112;7.358;2023-09-08T01:50:27;5.53;;;4.30;;
5285;SDS011;2665;53.112;7.358;2023-09-08T01:52:53;5.20;;;4.63;;
5285;SDS011;2665;53.112;7.358;2023-09-08T01:55:20;6.53;;;5.03;;
5285;SDS011;2665;53.112;7.358;2023-09-08T01:57:46;5.13;;;4.43;;
5285;SDS011;2665;53.112;7.358;2023-09-08T02:00:12;12.40;;;4.30;;
5285;SDS011;2665;53.112;7.358;2023-09-08T02:02:38;13.60;;;4.70;;
5285;SDS011;2665;53.112;7.358;2023-09-08T02:05:05;5.30;;;4.30;;
5285;SDS011;2665;53.112;7.358;2023-09-08T02:07:31;6.83;;;4.27;;
5285;SDS011;2665;53.112;7.358;2023-09-08T02:09:57;7.30;;;4.53;;
5285;SDS011;2665;53.112;7.358;2023-09-08T02:12:23;6.57;;;4.17;;
5285;SDS011;2665;53.112;7.358;2023-09-08T02:14:49;6.97;;;4.60;;
5285;SDS011;2665;53.112;7.358;2023-09-08T02:17:17;8.77;;;4.73;;
5285;SDS011;2665;53.112;7.358;2023-09-08T02:19:43;6.00;;;4.17;;
5285;SDS011;2665;53.112;7.358;2023-09-08T02:22:09;7.27;;;4.77;;
5285;SDS011;2665;53.112;7.358;2023-09-08T02:24:35;4.00;;;3.60;;
5285;SDS011;2665;53.112;7.358;2023-09-08T02:27:01;4.67;;;4.17;;
5285;SDS011;2665;53.112;7.358;2023-09-08T02:29:27;5.40;;;4.07;;
5285;SDS011;2665;53.112;7.358;2023-09-08T02:31:54;5.67;;;4.60;;
5285;SDS011;2665;53.112;7.358;2023-09-08T02:34:20;5.13;;;4.67;;
5285;SDS011;2665;53.112;7.358;2023-09-08T02:36:46;5.00;;;4.50;;
5285;SDS011;2665;53.112;7.358;2023-09-08T02:39:16;7.30;;;4.50;;
5285;SDS011;2665;53.112;7.358;2023-09-08T02:41:42;4.73;;;4.17;;
5285;SDS011;2665;53.112;7.358;2023-09-08T02:44:08;4.93;;;4.20;;
5285;SDS011;2665;53.112;7.358;2023-09-08T02:46:34;7.30;;;4.53;;
5285;SDS011;2665;53.112;7.358;2023-09-08T02:49:00;5.07;;;3.90;;
5285;SDS011;2665;53.112;7.358;2023-09-08T02:51:26;9.83;;;3.80;;
5285;SDS011;2665;53.112;7.358;2023-09-08T02:53:52;8.23;;;4.80;;
5285;SDS011;2665;53.112;7.358;2023-09-08T02:56:18;5.40;;;4.77;;
5285;SDS011;2665;53.112;7.358;2023-09-08T02:58:44;7.67;;;5.00;;
5285;SDS011;2665;53.112;7.358;2023-09-08T03:01:14;5.73;;;5.10;;
5285;SDS011;2665;53.112;7.358;2023-09-08T03:03:43;5.53;;;4.67;;
5285;SDS011;2665;53.112;7.358;2023-09-08T03:06:10;5.73;;;4.53;;
5285;SDS011;2665;53.112;7.358;2023-09-08T03:08:36;7.50;;;5.10;;
5285;SDS011;2665;53.112;7.358;2023-09-08T03:11:02;6.40;;;4.30;;
5285;SDS011;2665;53.112;7.358;2023-09-08T03:13:30;5.90;;;4.47;;
5285;SDS011;2665;53.112;7.358;2023-09-08T03:15:56;4.63;;;4.23;;
5285;SDS011;2665;53.112;7.358;2023-09-08T03:18:22;5.47;;;4.93;;
5285;SDS011;2665;53.112;7.358;2023-09-08T03:20:49;4.77;;;4.27;;
5285;SDS011;2665;53.112;7.358;2023-09-08T03:23:15;6.30;;;4.80;;
5285;SDS011;2665;53.112;7.358;2023-09-08T03:25:42;5.90;;;4.67;;
5285;SDS011;2665;53.112;7.358;2023-09-08T03:28:08;6.20;;;4.67;;
5285;SDS011;2665;53.112;7.358;2023-09-08T03:30:34;5.00;;;4.00;;
5285;SDS011;2665;53.112;7.358;2023-09-08T03:33:00;5.87;;;4.50;;
5285;SDS011;2665;53.112;7.358;2023-09-08T03:35:26;7.23;;;4.50;;
5285;SDS011;2665;53.112;7.358;2023-09-08T03:37:52;6.10;;;4.90;;
5285;SDS011;2665;53.112;7.358;2023-09-08T03:40:18;5.50;;;4.83;;
5285;SDS011;2665;53.112;7.358;2023-09-08T03:42:45;8.43;;;5.00;;
5285;SDS011;2665;53.112;7.358;2023-09-08T03:45:11;6.10;;;5.20;;
5285;SDS011;2665;53.112;7.358;2023-09-08T03:47:37;6.07;;;4.63;;
5285;SDS011;2665;53.112;7.358;2023-09-08T03:50:03;5.73;;;5.03;;
5285;SDS011;2665;53.112;7.358;2023-09-08T03:52:29;8.70;;;5.60;;
5285;SDS011;2665;53.112;7.358;2023-09-08T03:54:55;7.30;;;5.53;;
5285;SDS011;2665;53.112;7.358;2023-09-08T03:57:21;7.43;;;4.90;;
5285;SDS011;2665;53.112;7.358;2023-09-08T03:59:47;5.67;;;5.00;;
5285;SDS011;2665;53.112;7.358;2023-09-08T04:02:13;7.10;;;4.33;;
5285;SDS011;2665;53.112;7.358;2023-09-08T04:04:39;8.03;;;5.20;;
5285;SDS011;2665;53.112;7.358;2023-09-08T04:07:05;5.63;;;4.50;;
5285;SDS011;2665;53.112;7.358;2023-09-08T04:09:32;6.50;;;5.50;;
5285;SDS011;2665;53.112;7.358;2023-09-08T04:11:58;9.07;;;6.40;;
5285;SDS011;2665;53.112;7.358;2023-09-08T04:14:24;7.00;;;5.80;;
5285;SDS011;2665;53.112;7.358;2023-09-08T04:16:52;8.60;;;5.60;;
5285;SDS011;2665;53.112;7.358;2023-09-08T04:19:18;6.60;;;5.40;;
5285;SDS011;2665;53.112;7.358;2023-09-08T04:21:44;7.23;;;5.43;;
5285;SDS011;2665;53.112;7.358;2023-09-08T04:24:10;6.60;;;5.53;;
5285;SDS011;2665;53.112;7.358;2023-09-08T04:26:37;8.30;;;5.73;;
5285;SDS011;2665;53.112;7.358;2023-09-08T04:29:03;8.70;;;5.37;;
5285;SDS011;2665;53.112;7.358;2023-09-08T04:31:29;10.57;;;6.47;;
5285;SDS011;2665;53.112;7.358;2023-09-08T04:33:55;7.50;;;4.70;;
5285;SDS011;2665;53.112;7.358;2023-09-08T04:36:21;6.90;;;5.63;;
5285;SDS011;2665;53.112;7.358;2023-09-08T04:38:48;8.80;;;5.70;;
5285;SDS011;2665;53.112;7.358;2023-09-08T04:41:14;8.10;;;4.80;;
5285;SDS011;2665;53.112;7.358;2023-09-08T04:43:40;6.77;;;5.60;;
5285;SDS011;2665;53.112;7.358;2023-09-08T04:46:06;7.53;;;4.63;;
5285;SDS011;2665;53.112;7.358;2023-09-08T04:48:33;6.50;;;5.50;;
5285;SDS011;2665;53.112;7.358;2023-09-08T04:50:59;6.00;;;5.13;;
5285;SDS011;2665;53.112;7.358;2023-09-08T04:53:25;6.07;;;5.20;;
5285;SDS011;2665;53.112;7.358;2023-09-08T04:55:51;6.80;;;5.40;;
5285;SDS011;2665;53.112;7.358;2023-09-08T04:58:18;6.33;;;4.90;;
5285;SDS011;2665;53.112;7.358;2023-09-08T05:00:44;6.80;;;5.30;;
5285;SDS011;2665;53.112;7.358;2023-09-08T05:03:10;6.83;;;4.70;;
5285;SDS011;2665;53.112;7.358;2023-09-08T05:05:36;6.60;;;5.10;;
5285;SDS011;2665;53.112;7.358;2023-09-08T05:08:02;9.30;;;5.57;;
5285;SDS011;2665;53.112;7.358;2023-09-08T05:10:29;8.37;;;5.90;;
5285;SDS011;2665;53.112;7.358;2023-09-08T05:12:55;6.90;;;5.07;;
5285;SDS011;2665;53.112;7.358;2023-09-08T05:15:21;7.73;;;5.90;;
5285;SDS011;2665;53.112;7.358;2023-09-08T05:17:47;6.40;;;4.90;;
5285;SDS011;2665;53.112;7.358;2023-09-08T05:20:13;7.17;;;5.30;;
5285;SDS011;2665;53.112;7.358;2023-09-08T05:22:39;5.83;;;4.90;;
5285;SDS011;2665;53.112;7.358;2023-09-08T05:25:05;8.37;;;5.40;;
5285;SDS011;2665;53.112;7.358;2023-09-08T05:27:31;9.83;;;4.73;;
5285;SDS011;2665;53.112;7.358;2023-09-08T05:29:57;6.63;;;4.67;;
5285;SDS011;2665;53.112;7.358;2023-09-08T05:32:24;9.03;;;5.47;;
5285;SDS011;2665;53.112;7.358;2023-09-08T05:34:50;6.37;;;5.50;;
5285;SDS011;2665;53.112;7.358;2023-09-08T05:37:16;6.90;;;5.87;;
5285;SDS011;2665;53.112;7.358;2023-09-08T05:39:42;10.00;;;6.20;;
5285;SDS011;2665;53.112;7.358;2023-09-08T05:42:08;9.60;;;5.10;;
5285;SDS011;2665;53.112;7.358;2023-09-08T05:44:34;12.30;;;5.00;;
5285;SDS011;2665;53.112;7.358;2023-09-08T05:47:00;8.20;;;5.50;;
5285;SDS011;2665;53.112;7.358;2023-09-08T05:49:26;7.90;;;5.00;;
5285;SDS011;2665;53.112;7.358;2023-09-08T05:51:52;6.43;;;5.47;;
5285;SDS011;2665;53.112;7.358;2023-09-08T05:54:18;8.13;;;5.37;;
5285;SDS011;2665;53.112;7.358;2023-09-08T05:56:45;12.07;;;6.43;;
5285;SDS011;2665;53.112;7.358;2023-09-08T05:59:11;6.77;;;5.23;;
5285;SDS011;2665;53.112;7.358;2023-09-08T06:01:37;8.00;;;6.20;;
5285;SDS011;2665;53.112;7.358;2023-09-08T06:04:03;9.80;;;6.77;;
5285;SDS011;2665;53.112;7.358;2023-09-08T06:06:29;11.67;;;6.73;;
5285;SDS011;2665;53.112;7.358;2023-09-08T06:08:55;8.37;;;6.50;;
5285;SDS011;2665;53.112;7.358;2023-09-08T06:11:21;10.60;;;6.00;;
5285;SDS011;2665;53.112;7.358;2023-09-08T06:13:48;11.63;;;6.83;;
5285;SDS011;2665;53.112;7.358;2023-09-08T06:16:14;9.80;;;5.77;;
5285;SDS011;2665;53.112;7.358;2023-09-08T06:18:40;7.00;;;6.30;;
5285;SDS011;2665;53.112;7.358;2023-09-08T06:21:06;6.43;;;5.70;;
5285;SDS011;2665;53.112;7.358;2023-09-08T06:23:33;9.90;;;6.50;;
5285;SDS011;2665;53.112;7.358;2023-09-08T06:25:59;7.83;;;5.80;;
5285;SDS011;2665;53.112;7.358;2023-09-08T06:28:28;7.60;;;6.50;;
5285;SDS011;2665;53.112;7.358;2023-09-08T06:30:54;8.40;;;6.07;;
5285;SDS011;2665;53.112;7.358;2023-09-08T06:33:21;12.03;;;5.90;;
5285;SDS011;2665;53.112;7.358;2023-09-08T06:35:50;11.40;;;6.53;;
5285;SDS011;2665;53.112;7.358;2023-09-08T06:38:16;9.73;;;5.57;;
5285;SDS011;2665;53.112;7.358;2023-09-08T06:40:42;9.00;;;5.70;;
5285;SDS011;2665;53.112;7.358;2023-09-08T06:43:08;8.57;;;5.83;;
5285;SDS011;2665;53.112;7.358;2023-09-08T06:45:37;14.70;;;6.70;;
5285;SDS011;2665;53.112;7.358;2023-09-08T06:48:04;8.53;;;5.87;;
5285;SDS011;2665;53.112;7.358;2023-09-08T06:50:30;10.20;;;6.00;;
5285;SDS011;2665;53.112;7.358;2023-09-08T06:52:56;16.23;;;6.47;;
5285;SDS011;2665;53.112;7.358;2023-09-08T06:55:22;8.30;;;5.20;;
5285;SDS011;2665;53.112;7.358;2023-09-08T06:57:48;9.13;;;6.03;;
5285;SDS011;2665;53.112;7.358;2023-09-08T07:00:14;7.10;;;5.53;;
5285;SDS011;2665;53.112;7.358;2023-09-08T07:02:42;8.43;;;5.90;;
5285;SDS011;2665;53.112;7.358;2023-09-08T07:05:08;7.03;;;5.63;;
5285;SDS011;2665;53.112;7.358;2023-09-08T07:07:35;6.10;;;5.03;;
5285;SDS011;2665;53.112;7.358;2023-09-08T07:10:05;6.63;;;4.90;;
5285;SDS011;2665;53.112;7.358;2023-09-08T07:12:31;15.43;;;5.43;;
5285;SDS011;2665;53.112;7.358;2023-09-08T07:14:57;7.20;;;4.97;;
5285;SDS011;2665;53.112;7.358;2023-09-08T07:17:24;14.00;;;5.27;;
5285;SDS011;2665;53.112;7.358;2023-09-08T07:19:51;8.27;;;5.43;;
5285;SDS011;2665;53.112;7.358;2023-09-08T07:22:17;8.80;;;4.93;;
5285;SDS011;2665;53.112;7.358;2023-09-08T07:24:44;7.93;;;4.70;;
5285;SDS011;2665;53.112;7.358;2023-09-08T07:27:10;4.93;;;3.97;;
5285;SDS011;2665;53.112;7.358;2023-09-08T07:29:40;9.30;;;5.00;;
5285;SDS011;2665;53.112;7.358;2023-09-08T07:32:06;7.37;;;5.50;;
5285;SDS011;2665;53.112;7.358;2023-09-08T07:34:33;6.93;;;4.73;;
5285;SDS011;2665;53.112;7.358;2023-09-08T07:36:59;8.60;;;4.53;;
5285;SDS011;2665;53.112;7.358;2023-09-08T07:39:25;7.90;;;4.13;;
5285;SDS011;2665;53.112;7.358;2023-09-08T07:41:51;5.57;;;4.50;;
5285;SDS011;2665;53.112;7.358;2023-09-08T07:44:18;10.33;;;4.50;;
5285;SDS011;2665;53.112;7.358;2023-09-08T07:46:44;8.73;;;4.80;;
5285;SDS011;2665;53.112;7.358;2023-09-08T07:49:11;5.17;;;3.90;;
5285;SDS011;2665;53.112;7.358;2023-09-08T07:51:37;7.40;;;4.87;;
5285;SDS011;2665;53.112;7.358;2023-09-08T07:54:02;5.50;;;3.60;;
5285;SDS011;2665;53.112;7.358;2023-09-08T07:56:29;7.83;;;4.57;;
5285;SDS011;2665;53.112;7.358;2023-09-08T07:58:55;6.73;;;3.90;;
5285;SDS011;2665;53.112;7.358;2023-09-08T08:01:21;4.73;;;3.47;;
5285;SDS011;2665;53.112;7.358;2023-09-08T08:03:46;5.30;;;3.67;;
5285;SDS011;2665;53.112;7.358;2023-09-08T08:06:12;8.20;;;3.93;;
5285;SDS011;2665;53.112;7.358;2023-09-08T08:08:39;6.70;;;3.77;;
5285;SDS011;2665;53.112;7.358;2023-09-08T08:11:23;5.10;;;3.77;;
5285;SDS011;2665;53.112;7.358;2023-09-08T08:13:50;5.47;;;3.77;;
5285;SDS011;2665;53.112;7.358;2023-09-08T08:16:16;5.70;;;3.43;;
5285;SDS011;2665;53.112;7.358;2023-09-08T08:18:41;5.07;;;4.07;;
5285;SDS011;2665;53.112;7.358;2023-09-08T08:21:07;4.10;;;3.67;;
5285;SDS011;2665;53.112;7.358;2023-09-08T08:23:33;5.77;;;4.23;;
5285;SDS011;2665;53.112;7.358;2023-09-08T08:25:59;5.77;;;3.80;;
5285;SDS011;2665;53.112;7.358;2023-09-08T08:28:25;7.50;;;3.93;;
5285;SDS011;2665;53.112;7.358;2023-09-08T08:30:51;4.33;;;3.10;;
5285;SDS011;2665;53.112;7.358;2023-09-08T08:33:17;3.90;;;3.33;;
5285;SDS011;2665;53.112;7.358;2023-09-08T08:35:52;7.03;;;4.27;;
5285;SDS011;2665;53.112;7.358;2023-09-08T08:38:18;5.40;;;3.70;;
5285;SDS011;2665;53.112;7.358;2023-09-08T08:40:44;3.53;;;2.60;;
5285;SDS011;2665;53.112;7.358;2023-09-08T08:43:10;6.23;;;4.60;;
5285;SDS011;2665;53.112;7.358;2023-09-08T08:45:37;6.80;;;3.40;;
5285;SDS011;2665;53.112;7.358;2023-09-08T08:48:04;4.97;;;3.83;;
5285;SDS011;2665;53.112;7.358;2023-09-08T08:50:31;4.00;;;3.20;;
5285;SDS011;2665;53.112;7.358;2023-09-08T08:52:58;4.63;;;3.50;;
5285;SDS011;2665;53.112;7.358;2023-09-08T08:55:26;4.97;;;3.13;;
5285;SDS011;2665;53.112;7.358;2023-09-08T08:57:54;6.73;;;3.80;;
5285;SDS011;2665;53.112;7.358;2023-09-08T09:00:25;9.20;;;4.20;;
5285;SDS011;2665;53.112;7.358;2023-09-08T09:02:51;5.10;;;2.80;;
5285;SDS011;2665;53.112;7.358;2023-09-08T09:05:17;4.93;;;3.60;;
5285;SDS011;2665;53.112;7.358;2023-09-08T09:07:44;4.70;;;3.57;;
5285;SDS011;2665;53.112;7.358;2023-09-08T09:10:10;7.70;;;3.17;;
5285;SDS011;2665;53.112;7.358;2023-09-08T09:12:38;15.53;;;3.33;;
5285;SDS011;2665;53.112;7.358;2023-09-08T09:15:04;4.00;;;3.30;;
5285;SDS011;2665;53.112;7.358;2023-09-08T09:17:34;5.03;;;2.83;;
5285;SDS011;2665;53.112;7.358;2023-09-08T09:20:17;3.93;;;2.80;;
5285;SDS011;2665;53.112;7.358;2023-09-08T09:22:45;3.57;;;2.83;;
5285;SDS011;2665;53.112;7.358;2023-09-08T09:25:24;6.30;;;3.80;;
5285;SDS011;2665;53.112;7.358;2023-09-08T09:27:52;5.33;;;3.53;;
5285;SDS011;2665;53.112;7.358;2023-09-08T09:30:20;3.83;;;2.90;;
5285;SDS011;2665;53.112;7.358;2023-09-08T09:32:47;3.87;;;3.20;;
5285;SDS011;2665;53.112;7.358;2023-09-08T09:35:14;3.63;;;2.90;;
5285;SDS011;2665;53.112;7.358;2023-09-08T09:37:41;3.40;;;2.90;;
5285;SDS011;2665;53.112;7.358;2023-09-08T09:40:07;3.87;;;2.87;;
5285;SDS011;2665;53.112;7.358;2023-09-08T09:42:36;3.77;;;2.40;;
5285;SDS011;2665;53.112;7.358;2023-09-08T09:45:04;3.63;;;2.67;;
5285;SDS011;2665;53.112;7.358;2023-09-08T09:47:30;7.40;;;2.60;;
5285;SDS011;2665;53.112;7.358;2023-09-08T09:49:56;8.80;;;3.33;;
5285;SDS011;2665;53.112;7.358;2023-09-08T09:52:23;3.13;;;2.33;;
5285;SDS011;2665;53.112;7.358;2023-09-08T09:54:51;4.40;;;2.93;;
5285;SDS011;2665;53.112;7.358;2023-09-08T09:57:20;3.63;;;2.43;;
5285;SDS011;2665;53.112;7.358;2023-09-08T09:59:48;3.20;;;2.40;;
5285;SDS011;2665;53.112;7.358;2023-09-08T10:02:15;6.10;;;3.00;;
5285;SDS011;2665;53.112;7.358;2023-09-08T10:04:45;7.53;;;3.07;;
5285;SDS011;2665;53.112;7.358;2023-09-08T10:07:14;3.00;;;2.10;;
5285;SDS011;2665;53.112;7.358;2023-09-08T10:09:41;4.33;;;3.10;;
5285;SDS011;2665;53.112;7.358;2023-09-08T10:12:08;4.03;;;2.30;;
5285;SDS011;2665;53.112;7.358;2023-09-08T10:14:36;4.67;;;2.77;;
5285;SDS011;2665;53.112;7.358;2023-09-08T10:17:07;3.50;;;2.80;;
5285;SDS011;2665;53.112;7.358;2023-09-08T10:19:40;3.63;;;2.63;;
5285;SDS011;2665;53.112;7.358;2023-09-08T10:22:06;4.43;;;2.43;;
5285;SDS011;2665;53.112;7.358;2023-09-08T10:24:38;4.17;;;2.93;;
5285;SDS011;2665;53.112;7.358;2023-09-08T10:27:08;4.50;;;3.07;;
5285;SDS011;2665;53.112;7.358;2023-09-08T10:29:35;4.80;;;2.50;;
5285;SDS011;2665;53.112;7.358;2023-09-08T10:32:01;3.47;;;2.50;;
5285;SDS011;2665;53.112;7.358;2023-09-08T10:34:29;11.40;;;2.93;;
5285;SDS011;2665;53.112;7.358;2023-09-08T10:36:57;5.30;;;2.80;;
5285;SDS011;2665;53.112;7.358;2023-09-08T10:39:33;5.87;;;2.83;;
5285;SDS011;2665;53.112;7.358;2023-09-08T10:45:13;4.80;;;2.37;;
5285;SDS011;2665;53.112;7.358;2023-09-08T10:50:17;4.73;;;2.73;;
5285;SDS011;2665;53.112;7.358;2023-09-08T10:52:44;4.97;;;2.47;;
5285;SDS011;2665;53.112;7.358;2023-09-08T10:55:11;3.63;;;2.27;;
5285;SDS011;2665;53.112;7.358;2023-09-08T10:57:44;4.07;;;2.13;;
5285;SDS011;2665;53.112;7.358;2023-09-08T11:00:10;3.93;;;2.63;;
5285;SDS011;2665;53.112;7.358;2023-09-08T11:02:47;3.43;;;2.70;;
5285;SDS011;2665;53.112;7.358;2023-09-08T11:05:15;3.43;;;2.77;;
5285;SDS011;2665;53.112;7.358;2023-09-08T11:07:42;3.90;;;2.70;;
5285;SDS011;2665;53.112;7.358;2023-09-08T11:10:09;3.80;;;2.63;;
5285;SDS011;2665;53.112;7.358;2023-09-08T11:12:35;7.87;;;2.97;;
5285;SDS011;2665;53.112;7.358;2023-09-08T11:15:02;5.93;;;3.13;;
5285;SDS011;2665;53.112;7.358;2023-09-08T11:17:33;3.13;;;2.30;;
5285;SDS011;2665;53.112;7.358;2023-09-08T11:20:01;3.73;;;2.63;;
5285;SDS011;2665;53.112;7.358;2023-09-08T11:22:34;4.90;;;2.70;;
5285;SDS011;2665;53.112;7.358;2023-09-08T11:25:01;3.13;;;2.30;;
5285;SDS011;2665;53.112;7.358;2023-09-08T11:27:29;3.20;;;2.50;;
5285;SDS011;2665;53.112;7.358;2023-09-08T11:29:55;4.37;;;2.17;;
5285;SDS011;2665;53.112;7.358;2023-09-08T11:32:22;3.67;;;2.20;;
5285;SDS011;2665;53.112;7.358;2023-09-08T11:34:48;6.77;;;2.50;;
5285;SDS011;2665;53.112;7.358;2023-09-08T11:37:16;2.90;;;2.40;;
5285;SDS011;2665;53.112;7.358;2023-09-08T11:39:44;3.20;;;2.20;;
5285;SDS011;2665;53.112;7.358;2023-09-08T11:42:11;4.33;;;2.43;;
5285;SDS011;2665;53.112;7.358;2023-09-08T11:44:38;4.20;;;2.47;;
5285;SDS011;2665;53.112;7.358;2023-09-08T11:47:08;5.28;;;2.30;;
5285;SDS011;2665;53.112;7.358;2023-09-08T11:49:39;2.88;;;2.10;;
5285;SDS011;2665;53.112;7.358;2023-09-08T11:52:06;3.03;;;2.30;;
5285;SDS011;2665;53.112;7.358;2023-09-08T11:54:32;2.67;;;2.08;;
5285;SDS011;2665;53.112;7.358;2023-09-08T11:57:00;3.38;;;2.45;;
5285;SDS011;2665;53.112;7.358;2023-09-08T11:59:28;3.65;;;2.78;;
5285;SDS011;2665;53.112;7.358;2023-09-08T12:01:56;3.20;;;2.60;;
5285;SDS011;2665;53.112;7.358;2023-09-08T12:04:22;4.13;;;2.40;;
5285;SDS011;2665;53.112;7.358;2023-09-08T12:06:48;3.20;;;2.55;;
5285;SDS011;2665;53.112;7.358;2023-09-08T12:09:14;3.13;;;2.70;;
5285;SDS011;2665;53.112;7.358;2023-09-08T12:11:41;2.60;;;2.10;;
5285;SDS011;2665;53.112;7.358;2023-09-08T12:14:08;5.28;;;2.40;;
5285;SDS011;2665;53.112;7.358;2023-09-08T12:16:38;3.30;;;2.20;;
5285;SDS011;2665;53.112;7.358;2023-09-08T12:19:05;3.15;;;2.50;;
5285;SDS011;2665;53.112;7.358;2023-09-08T12:21:31;4.32;;;2.53;;
5285;SDS011;2665;53.112;7.358;2023-09-08T12:24:00;3.03;;;2.72;;
5285;SDS011;2665;53.112;7.358;2023-09-08T12:26:26;3.58;;;2.90;;
5285;SDS011;2665;53.112;7.358;2023-09-08T12:28:51;5.13;;;2.92;;
5285;SDS011;2665;53.112;7.358;2023-09-08T12:31:17;3.63;;;3.03;;
5285;SDS011;2665;53.112;7.358;2023-09-08T12:33:43;5.70;;;2.53;;
5285;SDS011;2665;53.112;7.358;2023-09-08T12:36:12;3.53;;;2.10;;
5285;SDS011;2665;53.112;7.358;2023-09-08T12:38:39;3.03;;;2.10;;
5285;SDS011;2665;53.112;7.358;2023-09-08T12:41:05;4.53;;;2.78;;
5285;SDS011;2665;53.112;7.358;2023-09-08T12:43:31;3.15;;;2.20;;
5285;SDS011;2665;53.112;7.358;2023-09-08T12:45:57;7.07;;;2.47;;
5285;SDS011;2665;53.112;7.358;2023-09-08T12:48:22;3.10;;;2.38;;
5285;SDS011;2665;53.112;7.358;2023-09-08T12:50:49;4.22;;;2.75;;
5285;SDS011;2665;53.112;7.358;2023-09-08T12:53:14;2.30;;;2.00;;
5285;SDS011;2665;53.112;7.358;2023-09-08T12:55:42;3.95;;;2.63;;
5285;SDS011;2665;53.112;7.358;2023-09-08T12:58:08;2.60;;;2.40;;
5285;SDS011;2665;53.112;7.358;2023-09-08T13:00:34;4.05;;;2.60;;
5285;SDS011;2665;53.112;7.358;2023-09-08T13:03:00;3.85;;;2.58;;
5285;SDS011;2665;53.112;7.358;2023-09-08T13:05:27;3.45;;;2.53;;
5285;SDS011;2665;53.112;7.358;2023-09-08T13:07:53;2.70;;;2.08;;
5285;SDS011;2665;53.112;7.358;2023-09-08T13:10:18;2.83;;;2.50;;
5285;SDS011;2665;53.112;7.358;2023-09-08T13:12:45;2.72;;;2.30;;
5285;SDS011;2665;53.112;7.358;2023-09-08T13:15:11;3.30;;;2.78;;
5285;SDS011;2665;53.112;7.358;2023-09-08T13:17:37;4.45;;;2.40;;
5285;SDS011;2665;53.112;7.358;2023-09-08T13:20:03;4.07;;;3.13;;
5285;SDS011;2665;53.112;7.358;2023-09-08T13:22:29;3.60;;;3.25;;
5285;SDS011;2665;53.112;7.358;2023-09-08T13:24:54;3.03;;;2.38;;
5285;SDS011;2665;53.112;7.358;2023-09-08T13:27:20;4.43;;;2.42;;
5285;SDS011;2665;53.112;7.358;2023-09-08T13:29:46;6.25;;;2.33;;
5285;SDS011;2665;53.112;7.358;2023-09-08T13:32:12;2.63;;;1.95;;
5285;SDS011;2665;53.112;7.358;2023-09-08T13:34:37;4.07;;;2.40;;
5285;SDS011;2665;53.112;7.358;2023-09-08T13:37:03;2.85;;;2.28;;
5285;SDS011;2665;53.112;7.358;2023-09-08T13:39:29;7.60;;;4.28;;
5285;SDS011;2665;53.112;7.358;2023-09-08T13:41:56;5.93;;;2.60;;
5285;SDS011;2665;53.112;7.358;2023-09-08T13:44:24;3.33;;;2.03;;
5285;SDS011;2665;53.112;7.358;2023-09-08T13:46:50;4.38;;;2.15;;
5285;SDS011;2665;53.112;7.358;2023-09-08T13:49:16;2.40;;;2.03;;
5285;SDS011;2665;53.112;7.358;2023-09-08T13:51:43;5.80;;;2.58;;
5285;SDS011;2665;53.112;7.358;2023-09-08T13:54:09;2.75;;;2.15;;
5285;SDS011;2665;53.112;7.358;2023-09-08T13:56:35;3.17;;;2.63;;
5285;SDS011;2665;53.112;7.358;2023-09-08T13:59:03;2.50;;;2.22;;
5285;SDS011;2665;53.112;7.358;2023-09-08T14:01:28;3.38;;;2.13;;
5285;SDS011;2665;53.112;7.358;2023-09-08T14:03:55;5.70;;;2.03;;
5285;SDS011;2665;53.112;7.358;2023-09-08T14:06:21;3.08;;;2.30;;
5285;SDS011;2665;53.112;7.358;2023-09-08T14:08:48;4.93;;;2.10;;
5285;SDS011;2665;53.112;7.358;2023-09-08T14:11:13;3.78;;;2.45;;
5285;SDS011;2665;53.112;7.358;2023-09-08T14:13:39;2.95;;;2.10;;
5285;SDS011;2665;53.112;7.358;2023-09-08T14:16:05;2.33;;;2.03;;
5285;SDS011;2665;53.112;7.358;2023-09-08T14:18:31;2.55;;;2.25;;
5285;SDS011;2665;53.112;7.358;2023-09-08T14:20:56;2.50;;;2.00;;
5285;SDS011;2665;53.112;7.358;2023-09-08T14:23:22;2.50;;;1.95;;
5285;SDS011;2665;53.112;7.358;2023-09-08T14:25:48;2.72;;;2.10;;
5285;SDS011;2665;53.112;7.358;2023-09-08T14:28:13;3.63;;;2.10;;
5285;SDS011;2665;53.112;7.358;2023-09-08T14:30:39;3.50;;;2.08;;
5285;SDS011;2665;53.112;7.358;2023-09-08T14:33:05;3.55;;;2.35;;
5285;SDS011;2665;53.112;7.358;2023-09-08T14:35:32;3.40;;;2.25;;
5285;SDS011;2665;53.112;7.358;2023-09-08T14:37:58;3.28;;;2.28;;
5285;SDS011;2665;53.112;7.358;2023-09-08T14:40:24;3.03;;;2.35;;
5285;SDS011;2665;53.112;7.358;2023-09-08T14:42:50;3.63;;;2.20;;
5285;SDS011;2665;53.112;7.358;2023-09-08T14:45:15;2.55;;;2.30;;
5285;SDS011;2665;53.112;7.358;2023-09-08T14:47:41;3.00;;;2.30;;
5285;SDS011;2665;53.112;7.358;2023-09-08T14:50:07;2.50;;;1.90;;
5285;SDS011;2665;53.112;7.358;2023-09-08T14:52:33;3.13;;;2.03;;
5285;SDS011;2665;53.112;7.358;2023-09-08T14:54:58;2.65;;;2.08;;
5285;SDS011;2665;53.112;7.358;2023-09-08T14:57:24;4.40;;;2.08;;
5285;SDS011;2665;53.112;7.358;2023-09-08T14:59:50;3.45;;;2.72;;
5285;SDS011;2665;53.112;7.358;2023-09-08T15:02:19;3.00;;;2.58;;
5285;SDS011;2665;53.112;7.358;2023-09-08T15:04:45;2.92;;;2.28;;
5285;SDS011;2665;53.112;7.358;2023-09-08T15:07:10;3.70;;;2.10;;
5285;SDS011;2665;53.112;7.358;2023-09-08T15:09:36;5.32;;;2.10;;
5285;SDS011;2665;53.112;7.358;2023-09-08T15:12:02;2.55;;;1.92;;
5285;SDS011;2665;53.112;7.358;2023-09-08T15:14:28;2.50;;;2.30;;
5285;SDS011;2665;53.112;7.358;2023-09-08T15:16:53;2.75;;;2.00;;